sensor_id;sensor_type;location;lat;lon;timestamp;P1;durP1;ratioP1;P2;durP2;ratioP2
59312;SDS011;45084;51.486;7.366;2023-08-21T00:02:16;7.03;;;3.90;;
59312;SDS011;45084;51.486;7.366;2023-08-21T00:04:42;8.63;;;3.83;;
59312;SDS011;45084;51.486;7.366;2023-08-21T00:07:07;6.32;;;3.38;;
59312;SDS011;45084;51.486;7.366;2023-08-21T00:09:34;5.65;;;3.75;;
59312;SDS011;45084;51.486;7.366;2023-08-21T00:12:00;10.77;;;3.33;;
59312;SDS011;45084;51.486;7.366;2023-08-21T00:14:25;10.15;;;3.90;;
59312;SDS011;45084;51.486;7.366;2023-08-21T00:16:51;8.10;;;3.85;;
59312;SDS011;45084;51.486;7.366;2023-08-21T00:19:17;7.05;;;3.72;;
59312;SDS011;45084;51.486;7.366;2023-08-21T00:21:43;9.70;;;3.88;;
59312;SDS011;45084;51.486;7.366;2023-08-21T00:24:08;10.43;;;3.78;;
59312;SDS011;45084;51.486;7.366;2023-08-21T00:26:34;6.55;;;3.90;;
59312;SDS011;45084;51.486;7.366;2023-08-21T00:28:59;11.65;;;4.05;;
59312;SDS011;45084;51.486;7.366;2023-08-21T00:31:25;7.45;;;3.70;;
59312;SDS011;45084;51.486;7.366;2023-08-21T00:33:51;9.35;;;4.20;;
59312;SDS011;45084;51.486;7.366;2023-08-21T00:36:16;10.02;;;4.25;;
59312;SDS011;45084;51.486;7.366;2023-08-21T00:38:42;8.45;;;3.85;;
59312;SDS011;45084;51.486;7.366;2023-08-21T00:41:08;8.82;;;3.95;;
59312;SDS011;45084;51.486;7.366;2023-08-21T00:43:34;6.13;;;3.60;;
59312;SDS011;45084;51.486;7.366;2023-08-21T00:45:59;6.47;;;3.33;;
59312;SDS011;45084;51.486;7.366;2023-08-21T00:48:25;10.52;;;3.88;;
59312;SDS011;45084;51.486;7.366;2023-08-21T00:50:51;7.20;;;4.25;;
59312;SDS011;45084;51.486;7.366;2023-08-21T00:53:16;5.25;;;3.63;;
59312;SDS011;45084;51.486;7.366;2023-08-21T00:55:42;6.85;;;3.67;;
59312;SDS011;45084;51.486;7.366;2023-08-21T00:58:09;10.20;;;3.80;;
59312;SDS011;45084;51.486;7.366;2023-08-21T01:00:38;6.32;;;3.90;;
59312;SDS011;45084;51.486;7.366;2023-08-21T01:03:05;9.10;;;4.50;;
59312;SDS011;45084;51.486;7.366;2023-08-21T01:05:31;8.05;;;4.22;;
59312;SDS011;45084;51.486;7.366;2023-08-21T01:07:59;8.02;;;4.50;;
59312;SDS011;45084;51.486;7.366;2023-08-21T01:13:24;5.90;;;3.88;;
59312;SDS011;45084;51.486;7.366;2023-08-21T01:16:02;7.90;;;3.72;;
59312;SDS011;45084;51.486;7.366;2023-08-21T01:18:29;7.35;;;3.67;;
59312;SDS011;45084;51.486;7.366;2023-08-21T01:20:56;9.45;;;4.07;;
59312;SDS011;45084;51.486;7.366;2023-08-21T01:23:35;8.82;;;4.53;;
59312;SDS011;45084;51.486;7.366;2023-08-21T01:26:02;9.18;;;4.07;;
59312;SDS011;45084;51.486;7.366;2023-08-21T01:28:28;6.25;;;3.58;;
59312;SDS011;45084;51.486;7.366;2023-08-21T01:31:00;12.10;;;4.00;;
59312;SDS011;45084;51.486;7.366;2023-08-21T01:33:44;6.13;;;3.85;;
59312;SDS011;45084;51.486;7.366;2023-08-21T01:36:12;6.75;;;3.80;;
59312;SDS011;45084;51.486;7.366;2023-08-21T01:38:39;13.73;;;3.72;;
59312;SDS011;45084;51.486;7.366;2023-08-21T01:41:06;5.10;;;3.38;;
59312;SDS011;45084;51.486;7.366;2023-08-21T01:43:31;5.88;;;3.67;;
59312;SDS011;45084;51.486;7.366;2023-08-21T01:45:57;9.88;;;3.58;;
59312;SDS011;45084;51.486;7.366;2023-08-21T01:48:23;8.05;;;3.72;;
59312;SDS011;45084;51.486;7.366;2023-08-21T01:50:48;6.55;;;3.53;;
59312;SDS011;45084;51.486;7.366;2023-08-21T01:53:14;6.97;;;3.63;;
59312;SDS011;45084;51.486;7.366;2023-08-21T01:55:40;7.57;;;3.75;;
59312;SDS011;45084;51.486;7.366;2023-08-21T01:58:05;5.85;;;3.20;;
59312;SDS011;45084;51.486;7.366;2023-08-21T02:00:31;9.45;;;3.92;;
59312;SDS011;45084;51.486;7.366;2023-08-21T02:02:56;7.97;;;3.00;;
59312;SDS011;45084;51.486;7.366;2023-08-21T02:05:22;7.88;;;3.33;;
59312;SDS011;45084;51.486;7.366;2023-08-21T02:07:47;5.15;;;3.50;;
59312;SDS011;45084;51.486;7.366;2023-08-21T02:10:13;8.10;;;3.80;;
59312;SDS011;45084;51.486;7.366;2023-08-21T02:12:39;8.82;;;3.40;;
59312;SDS011;45084;51.486;7.366;2023-08-21T02:15:04;5.03;;;3.72;;
59312;SDS011;45084;51.486;7.366;2023-08-21T02:17:31;7.85;;;3.17;;
59312;SDS011;45084;51.486;7.366;2023-08-21T02:19:57;8.05;;;3.85;;
59312;SDS011;45084;51.486;7.366;2023-08-21T02:22:22;7.18;;;3.33;;
59312;SDS011;45084;51.486;7.366;2023-08-21T02:24:48;6.18;;;3.35;;
59312;SDS011;45084;51.486;7.366;2023-08-21T02:27:14;7.95;;;3.47;;
59312;SDS011;45084;51.486;7.366;2023-08-21T02:29:39;8.80;;;3.72;;
59312;SDS011;45084;51.486;7.366;2023-08-21T02:32:05;5.65;;;3.35;;
59312;SDS011;45084;51.486;7.366;2023-08-21T02:34:30;6.95;;;3.17;;
59312;SDS011;45084;51.486;7.366;2023-08-21T02:36:56;6.50;;;3.20;;
59312;SDS011;45084;51.486;7.366;2023-08-21T02:39:23;8.90;;;3.47;;
59312;SDS011;45084;51.486;7.366;2023-08-21T02:41:49;4.18;;;2.85;;
59312;SDS011;45084;51.486;7.366;2023-08-21T02:44:14;5.75;;;3.50;;
59312;SDS011;45084;51.486;7.366;2023-08-21T02:46:40;7.63;;;3.30;;
59312;SDS011;45084;51.486;7.366;2023-08-21T02:49:05;6.88;;;3.50;;
59312;SDS011;45084;51.486;7.366;2023-08-21T02:51:31;9.63;;;3.47;;
59312;SDS011;45084;51.486;7.366;2023-08-21T02:53:57;5.72;;;3.20;;
59312;SDS011;45084;51.486;7.366;2023-08-21T02:56:22;4.13;;;3.03;;
59312;SDS011;45084;51.486;7.366;2023-08-21T02:58:48;12.95;;;3.92;;
59312;SDS011;45084;51.486;7.366;2023-08-21T03:01:13;6.60;;;3.53;;
59312;SDS011;45084;51.486;7.366;2023-08-21T03:03:39;9.23;;;3.75;;
59312;SDS011;45084;51.486;7.366;2023-08-21T03:06:05;5.85;;;3.20;;
59312;SDS011;45084;51.486;7.366;2023-08-21T03:08:30;9.38;;;3.88;;
59312;SDS011;45084;51.486;7.366;2023-08-21T03:10:56;6.75;;;3.30;;
59312;SDS011;45084;51.486;7.366;2023-08-21T03:13:22;5.45;;;3.75;;
59312;SDS011;45084;51.486;7.366;2023-08-21T03:15:47;7.03;;;3.92;;
59312;SDS011;45084;51.486;7.366;2023-08-21T03:18:13;6.22;;;3.58;;
59312;SDS011;45084;51.486;7.366;2023-08-21T03:20:43;8.55;;;3.60;;
59312;SDS011;45084;51.486;7.366;2023-08-21T03:23:09;5.70;;;3.10;;
59312;SDS011;45084;51.486;7.366;2023-08-21T03:25:35;8.88;;;4.20;;
59312;SDS011;45084;51.486;7.366;2023-08-21T03:28:00;6.47;;;3.63;;
59312;SDS011;45084;51.486;7.366;2023-08-21T03:30:26;5.10;;;3.65;;
59312;SDS011;45084;51.486;7.366;2023-08-21T03:32:52;8.48;;;3.65;;
59312;SDS011;45084;51.486;7.366;2023-08-21T03:35:17;5.65;;;3.17;;
59312;SDS011;45084;51.486;7.366;2023-08-21T03:37:43;6.05;;;3.70;;
59312;SDS011;45084;51.486;7.366;2023-08-21T03:40:08;11.00;;;3.53;;
59312;SDS011;45084;51.486;7.366;2023-08-21T03:42:34;7.10;;;4.13;;
59312;SDS011;45084;51.486;7.366;2023-08-21T03:45:00;7.60;;;3.53;;
59312;SDS011;45084;51.486;7.366;2023-08-21T03:47:26;8.88;;;3.80;;
59312;SDS011;45084;51.486;7.366;2023-08-21T03:49:51;6.72;;;3.75;;
59312;SDS011;45084;51.486;7.366;2023-08-21T03:52:17;6.22;;;3.53;;
59312;SDS011;45084;51.486;7.366;2023-08-21T03:54:42;9.43;;;4.15;;
59312;SDS011;45084;51.486;7.366;2023-08-21T03:57:08;7.22;;;3.70;;
59312;SDS011;45084;51.486;7.366;2023-08-21T03:59:33;6.22;;;3.65;;
59312;SDS011;45084;51.486;7.366;2023-08-21T04:01:59;5.57;;;3.22;;
59312;SDS011;45084;51.486;7.366;2023-08-21T04:04:25;4.93;;;3.25;;
59312;SDS011;45084;51.486;7.366;2023-08-21T04:06:50;7.40;;;3.80;;
59312;SDS011;45084;51.486;7.366;2023-08-21T04:09:16;9.38;;;4.28;;
59312;SDS011;45084;51.486;7.366;2023-08-21T04:11:41;10.77;;;4.15;;
59312;SDS011;45084;51.486;7.366;2023-08-21T04:14:07;11.15;;;3.63;;
59312;SDS011;45084;51.486;7.366;2023-08-21T04:16:33;8.85;;;3.53;;
59312;SDS011;45084;51.486;7.366;2023-08-21T04:18:58;10.00;;;3.58;;
59312;SDS011;45084;51.486;7.366;2023-08-21T04:21:24;5.40;;;3.50;;
59312;SDS011;45084;51.486;7.366;2023-08-21T04:23:49;6.72;;;3.63;;
59312;SDS011;45084;51.486;7.366;2023-08-21T04:26:15;6.22;;;3.53;;
59312;SDS011;45084;51.486;7.366;2023-08-21T04:28:41;4.43;;;3.50;;
59312;SDS011;45084;51.486;7.366;2023-08-21T04:31:07;7.80;;;3.40;;
59312;SDS011;45084;51.486;7.366;2023-08-21T04:33:33;8.90;;;3.80;;
59312;SDS011;45084;51.486;7.366;2023-08-21T04:35:59;9.88;;;3.60;;
59312;SDS011;45084;51.486;7.366;2023-08-21T04:38:25;6.20;;;3.78;;
59312;SDS011;45084;51.486;7.366;2023-08-21T04:40:51;10.50;;;4.40;;
59312;SDS011;45084;51.486;7.366;2023-08-21T04:43:17;10.80;;;4.13;;
59312;SDS011;45084;51.486;7.366;2023-08-21T04:45:47;6.75;;;3.92;;
59312;SDS011;45084;51.486;7.366;2023-08-21T04:48:17;6.30;;;3.65;;
59312;SDS011;45084;51.486;7.366;2023-08-21T04:50:44;9.13;;;3.78;;
59312;SDS011;45084;51.486;7.366;2023-08-21T04:53:10;7.40;;;3.35;;
59312;SDS011;45084;51.486;7.366;2023-08-21T04:55:36;7.28;;;3.55;;
59312;SDS011;45084;51.486;7.366;2023-08-21T04:58:01;7.15;;;3.85;;
59312;SDS011;45084;51.486;7.366;2023-08-21T05:00:27;10.60;;;3.80;;
59312;SDS011;45084;51.486;7.366;2023-08-21T05:02:53;11.35;;;3.78;;
59312;SDS011;45084;51.486;7.366;2023-08-21T05:05:18;6.63;;;3.20;;
59312;SDS011;45084;51.486;7.366;2023-08-21T05:07:45;6.88;;;3.55;;
59312;SDS011;45084;51.486;7.366;2023-08-21T05:10:11;9.20;;;3.70;;
59312;SDS011;45084;51.486;7.366;2023-08-21T05:12:36;7.30;;;3.45;;
59312;SDS011;45084;51.486;7.366;2023-08-21T05:15:02;7.93;;;4.20;;
59312;SDS011;45084;51.486;7.366;2023-08-21T05:17:28;6.25;;;3.70;;
59312;SDS011;45084;51.486;7.366;2023-08-21T05:19:54;6.43;;;4.13;;
59312;SDS011;45084;51.486;7.366;2023-08-21T05:22:20;4.97;;;3.53;;
59312;SDS011;45084;51.486;7.366;2023-08-21T05:24:45;9.27;;;3.28;;
59312;SDS011;45084;51.486;7.366;2023-08-21T05:27:11;5.68;;;3.33;;
59312;SDS011;45084;51.486;7.366;2023-08-21T05:29:36;4.57;;;3.45;;
59312;SDS011;45084;51.486;7.366;2023-08-21T05:32:02;4.63;;;3.38;;
59312;SDS011;45084;51.486;7.366;2023-08-21T05:34:28;5.85;;;3.47;;
59312;SDS011;45084;51.486;7.366;2023-08-21T05:36:53;9.77;;;3.40;;
59312;SDS011;45084;51.486;7.366;2023-08-21T05:39:19;8.55;;;4.00;;
59312;SDS011;45084;51.486;7.366;2023-08-21T05:41:45;9.27;;;3.63;;
59312;SDS011;45084;51.486;7.366;2023-08-21T05:44:11;5.75;;;3.42;;
59312;SDS011;45084;51.486;7.366;2023-08-21T05:46:37;4.40;;;3.00;;
59312;SDS011;45084;51.486;7.366;2023-08-21T05:49:03;6.57;;;3.17;;
59312;SDS011;45084;51.486;7.366;2023-08-21T05:51:28;8.95;;;4.38;;
59312;SDS011;45084;51.486;7.366;2023-08-21T05:53:54;6.80;;;3.20;;
59312;SDS011;45084;51.486;7.366;2023-08-21T05:56:21;7.25;;;3.30;;
59312;SDS011;45084;51.486;7.366;2023-08-21T05:58:47;6.65;;;2.95;;
59312;SDS011;45084;51.486;7.366;2023-08-21T06:01:13;4.93;;;3.10;;
59312;SDS011;45084;51.486;7.366;2023-08-21T06:03:39;7.05;;;3.05;;
59312;SDS011;45084;51.486;7.366;2023-08-21T06:06:05;8.57;;;3.30;;
59312;SDS011;45084;51.486;7.366;2023-08-21T06:08:30;6.82;;;3.00;;
59312;SDS011;45084;51.486;7.366;2023-08-21T06:10:56;5.78;;;2.88;;
59312;SDS011;45084;51.486;7.366;2023-08-21T06:13:22;4.90;;;2.60;;
59312;SDS011;45084;51.486;7.366;2023-08-21T06:15:47;5.30;;;2.72;;
59312;SDS011;45084;51.486;7.366;2023-08-21T06:18:13;5.50;;;2.78;;
59312;SDS011;45084;51.486;7.366;2023-08-21T06:20:41;7.18;;;3.13;;
59312;SDS011;45084;51.486;7.366;2023-08-21T06:23:08;6.13;;;2.70;;
59312;SDS011;45084;51.486;7.366;2023-08-21T06:25:34;12.07;;;2.53;;
59312;SDS011;45084;51.486;7.366;2023-08-21T06:28:00;10.63;;;2.80;;
59312;SDS011;45084;51.486;7.366;2023-08-21T06:30:26;9.18;;;2.70;;
59312;SDS011;45084;51.486;7.366;2023-08-21T06:32:52;6.93;;;2.65;;
59312;SDS011;45084;51.486;7.366;2023-08-21T06:35:17;6.03;;;2.85;;
59312;SDS011;45084;51.486;7.366;2023-08-21T06:37:43;5.30;;;2.80;;
59312;SDS011;45084;51.486;7.366;2023-08-21T06:40:09;7.25;;;3.00;;
59312;SDS011;45084;51.486;7.366;2023-08-21T06:42:34;8.55;;;2.90;;
59312;SDS011;45084;51.486;7.366;2023-08-21T06:45:00;8.57;;;2.65;;
59312;SDS011;45084;51.486;7.366;2023-08-21T06:47:26;8.77;;;2.65;;
59312;SDS011;45084;51.486;7.366;2023-08-21T06:49:51;6.00;;;2.33;;
59312;SDS011;45084;51.486;7.366;2023-08-21T06:52:17;6.53;;;2.60;;
59312;SDS011;45084;51.486;7.366;2023-08-21T06:54:43;6.53;;;3.00;;
59312;SDS011;45084;51.486;7.366;2023-08-21T06:57:08;10.45;;;2.92;;
59312;SDS011;45084;51.486;7.366;2023-08-21T06:59:34;5.43;;;2.45;;
59312;SDS011;45084;51.486;7.366;2023-08-21T07:02:01;4.50;;;2.30;;
59312;SDS011;45084;51.486;7.366;2023-08-21T07:04:27;2.53;;;2.20;;
59312;SDS011;45084;51.486;7.366;2023-08-21T07:06:53;3.88;;;2.42;;
59312;SDS011;45084;51.486;7.366;2023-08-21T07:09:19;6.28;;;2.53;;
59312;SDS011;45084;51.486;7.366;2023-08-21T07:11:44;5.55;;;2.20;;
59312;SDS011;45084;51.486;7.366;2023-08-21T07:14:10;5.47;;;2.80;;
59312;SDS011;45084;51.486;7.366;2023-08-21T07:16:38;7.45;;;2.67;;
59312;SDS011;45084;51.486;7.366;2023-08-21T07:19:04;6.30;;;3.00;;
59312;SDS011;45084;51.486;7.366;2023-08-21T07:21:29;4.68;;;2.85;;
59312;SDS011;45084;51.486;7.366;2023-08-21T07:23:55;6.47;;;2.70;;
59312;SDS011;45084;51.486;7.366;2023-08-21T07:26:21;7.97;;;3.13;;
59312;SDS011;45084;51.486;7.366;2023-08-21T07:28:46;9.13;;;2.63;;
59312;SDS011;45084;51.486;7.366;2023-08-21T07:31:12;7.60;;;2.92;;
59312;SDS011;45084;51.486;7.366;2023-08-21T07:33:38;7.90;;;2.80;;
59312;SDS011;45084;51.486;7.366;2023-08-21T07:36:04;7.68;;;2.70;;
59312;SDS011;45084;51.486;7.366;2023-08-21T07:38:30;5.05;;;2.30;;
59312;SDS011;45084;51.486;7.366;2023-08-21T07:41:05;6.00;;;2.50;;
59312;SDS011;45084;51.486;7.366;2023-08-21T07:43:33;4.72;;;2.90;;
59312;SDS011;45084;51.486;7.366;2023-08-21T07:46:04;7.68;;;2.85;;
59312;SDS011;45084;51.486;7.366;2023-08-21T07:48:31;6.40;;;3.08;;
59312;SDS011;45084;51.486;7.366;2023-08-21T07:50:57;6.43;;;2.85;;
59312;SDS011;45084;51.486;7.366;2023-08-21T07:53:23;4.20;;;2.63;;
59312;SDS011;45084;51.486;7.366;2023-08-21T07:55:51;5.88;;;2.80;;
59312;SDS011;45084;51.486;7.366;2023-08-21T07:58:17;7.05;;;3.03;;
59312;SDS011;45084;51.486;7.366;2023-08-21T08:00:43;7.82;;;3.05;;
59312;SDS011;45084;51.486;7.366;2023-08-21T08:03:08;4.82;;;2.80;;
59312;SDS011;45084;51.486;7.366;2023-08-21T08:05:36;7.95;;;2.78;;
59312;SDS011;45084;51.486;7.366;2023-08-21T08:08:02;7.50;;;2.95;;
59312;SDS011;45084;51.486;7.366;2023-08-21T08:10:27;5.95;;;2.88;;
59312;SDS011;45084;51.486;7.366;2023-08-21T08:12:53;7.13;;;3.80;;
59312;SDS011;45084;51.486;7.366;2023-08-21T08:15:19;5.97;;;2.88;;
59312;SDS011;45084;51.486;7.366;2023-08-21T08:17:45;6.60;;;2.92;;
59312;SDS011;45084;51.486;7.366;2023-08-21T08:20:11;11.30;;;3.08;;
59312;SDS011;45084;51.486;7.366;2023-08-21T08:22:38;5.90;;;2.95;;
59312;SDS011;45084;51.486;7.366;2023-08-21T08:25:04;7.75;;;3.28;;
59312;SDS011;45084;51.486;7.366;2023-08-21T08:27:31;7.45;;;2.90;;
59312;SDS011;45084;51.486;7.366;2023-08-21T08:29:57;9.00;;;3.30;;
59312;SDS011;45084;51.486;7.366;2023-08-21T08:32:23;7.00;;;3.58;;
59312;SDS011;45084;51.486;7.366;2023-08-21T08:34:48;7.32;;;3.38;;
59312;SDS011;45084;51.486;7.366;2023-08-21T08:37:14;5.97;;;3.28;;
59312;SDS011;45084;51.486;7.366;2023-08-21T08:39:39;8.68;;;3.80;;
59312;SDS011;45084;51.486;7.366;2023-08-21T08:42:05;7.70;;;3.10;;
59312;SDS011;45084;51.486;7.366;2023-08-21T08:44:34;6.05;;;3.28;;
59312;SDS011;45084;51.486;7.366;2023-08-21T08:47:01;7.50;;;3.25;;
59312;SDS011;45084;51.486;7.366;2023-08-21T08:49:27;6.40;;;2.83;;
59312;SDS011;45084;51.486;7.366;2023-08-21T08:51:53;7.80;;;3.00;;
59312;SDS011;45084;51.486;7.366;2023-08-21T08:54:19;4.28;;;3.17;;
59312;SDS011;45084;51.486;7.366;2023-08-21T08:56:47;5.10;;;2.85;;
59312;SDS011;45084;51.486;7.366;2023-08-21T08:59:13;6.45;;;2.70;;
59312;SDS011;45084;51.486;7.366;2023-08-21T09:01:40;6.40;;;2.58;;
59312;SDS011;45084;51.486;7.366;2023-08-21T09:04:06;7.50;;;2.80;;
59312;SDS011;45084;51.486;7.366;2023-08-21T09:06:32;6.10;;;2.88;;
59312;SDS011;45084;51.486;7.366;2023-08-21T09:08:58;6.28;;;2.75;;
59312;SDS011;45084;51.486;7.366;2023-08-21T09:11:24;6.13;;;2.35;;
59312;SDS011;45084;51.486;7.366;2023-08-21T09:13:50;7.13;;;3.03;;
59312;SDS011;45084;51.486;7.366;2023-08-21T09:16:23;8.80;;;3.17;;
59312;SDS011;45084;51.486;7.366;2023-08-21T09:18:51;10.75;;;3.35;;
59312;SDS011;45084;51.486;7.366;2023-08-21T09:21:19;5.70;;;2.95;;
59312;SDS011;45084;51.486;7.366;2023-08-21T09:23:45;7.65;;;3.67;;
59312;SDS011;45084;51.486;7.366;2023-08-21T09:26:18;4.85;;;2.88;;
59312;SDS011;45084;51.486;7.366;2023-08-21T09:28:45;8.27;;;2.88;;
59312;SDS011;45084;51.486;7.366;2023-08-21T09:31:12;7.20;;;2.83;;
59312;SDS011;45084;51.486;7.366;2023-08-21T09:33:38;8.57;;;3.20;;
59312;SDS011;45084;51.486;7.366;2023-08-21T09:36:04;8.50;;;3.20;;
59312;SDS011;45084;51.486;7.366;2023-08-21T09:38:29;6.47;;;2.63;;
59312;SDS011;45084;51.486;7.366;2023-08-21T09:40:55;9.27;;;3.13;;
59312;SDS011;45084;51.486;7.366;2023-08-21T09:43:21;8.25;;;2.92;;
59312;SDS011;45084;51.486;7.366;2023-08-21T09:45:52;6.35;;;2.80;;
59312;SDS011;45084;51.486;7.366;2023-08-21T09:48:23;10.57;;;3.00;;
59312;SDS011;45084;51.486;7.366;2023-08-21T09:50:52;6.22;;;2.90;;
59312;SDS011;45084;51.486;7.366;2023-08-21T09:53:20;9.10;;;3.55;;
59312;SDS011;45084;51.486;7.366;2023-08-21T09:55:47;4.60;;;2.53;;
59312;SDS011;45084;51.486;7.366;2023-08-21T09:58:14;5.78;;;2.67;;
59312;SDS011;45084;51.486;7.366;2023-08-21T10:00:41;10.20;;;3.08;;
59312;SDS011;45084;51.486;7.366;2023-08-21T10:03:07;8.10;;;2.45;;
59312;SDS011;45084;51.486;7.366;2023-08-21T10:05:35;7.80;;;2.60;;
59312;SDS011;45084;51.486;7.366;2023-08-21T10:08:03;6.38;;;2.50;;
59312;SDS011;45084;51.486;7.366;2023-08-21T10:10:33;6.07;;;2.90;;
59312;SDS011;45084;51.486;7.366;2023-08-21T10:13:00;5.90;;;2.80;;
59312;SDS011;45084;51.486;7.366;2023-08-21T10:15:27;6.05;;;3.15;;
59312;SDS011;45084;51.486;7.366;2023-08-21T10:17:54;7.35;;;2.47;;
59312;SDS011;45084;51.486;7.366;2023-08-21T10:20:23;9.57;;;3.47;;
59312;SDS011;45084;51.486;7.366;2023-08-21T10:22:52;8.60;;;3.05;;
59312;SDS011;45084;51.486;7.366;2023-08-21T10:25:20;5.38;;;2.80;;
59312;SDS011;45084;51.486;7.366;2023-08-21T10:27:55;5.15;;;2.92;;
59312;SDS011;45084;51.486;7.366;2023-08-21T10:30:23;6.75;;;2.78;;
59312;SDS011;45084;51.486;7.366;2023-08-21T10:32:50;7.53;;;2.55;;
59312;SDS011;45084;51.486;7.366;2023-08-21T10:35:18;7.47;;;2.97;;
59312;SDS011;45084;51.486;7.366;2023-08-21T10:40:38;7.32;;;2.72;;
59312;SDS011;45084;51.486;7.366;2023-08-21T10:43:39;4.03;;;2.85;;
59312;SDS011;45084;51.486;7.366;2023-08-21T10:46:08;6.25;;;3.15;;
59312;SDS011;45084;51.486;7.366;2023-08-21T10:48:35;7.10;;;2.90;;
59312;SDS011;45084;51.486;7.366;2023-08-21T10:51:01;5.88;;;2.70;;
59312;SDS011;45084;51.486;7.366;2023-08-21T10:53:29;6.65;;;3.20;;
59312;SDS011;45084;51.486;7.366;2023-08-21T10:55:55;6.95;;;2.78;;
59312;SDS011;45084;51.486;7.366;2023-08-21T10:58:21;9.60;;;3.10;;
59312;SDS011;45084;51.486;7.366;2023-08-21T11:00:55;6.28;;;2.65;;
59312;SDS011;45084;51.486;7.366;2023-08-21T11:03:22;8.20;;;2.95;;
59312;SDS011;45084;51.486;7.366;2023-08-21T11:05:59;7.15;;;3.35;;
59312;SDS011;45084;51.486;7.366;2023-08-21T11:08:29;8.60;;;3.58;;
59312;SDS011;45084;51.486;7.366;2023-08-21T11:10:55;7.32;;;2.70;;
59312;SDS011;45084;51.486;7.366;2023-08-21T11:13:23;7.65;;;3.30;;
59312;SDS011;45084;51.486;7.366;2023-08-21T11:15:48;7.50;;;3.03;;
59312;SDS011;45084;51.486;7.366;2023-08-21T11:18:22;9.57;;;3.00;;
59312;SDS011;45084;51.486;7.366;2023-08-21T11:20:52;6.18;;;3.42;;
59312;SDS011;45084;51.486;7.366;2023-08-21T11:23:31;6.22;;;2.83;;
59312;SDS011;45084;51.486;7.366;2023-08-21T11:25:59;7.03;;;3.45;;
59312;SDS011;45084;51.486;7.366;2023-08-21T11:28:25;6.30;;;3.30;;
59312;SDS011;45084;51.486;7.366;2023-08-21T11:30:50;8.13;;;3.65;;
59312;SDS011;45084;51.486;7.366;2023-08-21T11:33:16;9.02;;;3.78;;
59312;SDS011;45084;51.486;7.366;2023-08-21T11:35:43;6.10;;;3.40;;
59312;SDS011;45084;51.486;7.366;2023-08-21T11:38:19;7.15;;;3.67;;
59312;SDS011;45084;51.486;7.366;2023-08-21T11:40:55;4.13;;;2.60;;
59312;SDS011;45084;51.486;7.366;2023-08-21T11:43:35;10.70;;;3.30;;
59312;SDS011;45084;51.486;7.366;2023-08-21T11:46:05;8.63;;;2.80;;
59312;SDS011;45084;51.486;7.366;2023-08-21T11:48:32;8.45;;;2.65;;
59312;SDS011;45084;51.486;7.366;2023-08-21T11:50:58;8.27;;;2.88;;
59312;SDS011;45084;51.486;7.366;2023-08-21T11:56:12;6.05;;;3.00;;
59312;SDS011;45084;51.486;7.366;2023-08-21T11:58:39;5.07;;;2.85;;
59312;SDS011;45084;51.486;7.366;2023-08-21T12:01:17;4.45;;;2.28;;
59312;SDS011;45084;51.486;7.366;2023-08-21T12:03:44;4.20;;;2.58;;
59312;SDS011;45084;51.486;7.366;2023-08-21T12:06:11;6.30;;;2.30;;
59312;SDS011;45084;51.486;7.366;2023-08-21T12:08:37;5.05;;;2.15;;
59312;SDS011;45084;51.486;7.366;2023-08-21T12:11:04;5.97;;;2.05;;
59312;SDS011;45084;51.486;7.366;2023-08-21T12:13:30;5.15;;;2.42;;
59312;SDS011;45084;51.486;7.366;2023-08-21T12:15:56;5.47;;;2.85;;
59312;SDS011;45084;51.486;7.366;2023-08-21T12:18:22;6.43;;;2.70;;
59312;SDS011;45084;51.486;7.366;2023-08-21T12:20:48;10.75;;;2.55;;
59312;SDS011;45084;51.486;7.366;2023-08-21T12:23:13;7.28;;;2.10;;
59312;SDS011;45084;51.486;7.366;2023-08-21T12:25:40;8.48;;;2.60;;
59312;SDS011;45084;51.486;7.366;2023-08-21T12:28:07;4.28;;;2.00;;
59312;SDS011;45084;51.486;7.366;2023-08-21T12:30:33;4.13;;;2.47;;
59312;SDS011;45084;51.486;7.366;2023-08-21T12:32:59;4.72;;;2.60;;
59312;SDS011;45084;51.486;7.366;2023-08-21T12:35:24;5.93;;;2.60;;
59312;SDS011;45084;51.486;7.366;2023-08-21T12:37:50;6.40;;;2.05;;
59312;SDS011;45084;51.486;7.366;2023-08-21T12:40:16;4.30;;;2.50;;
59312;SDS011;45084;51.486;7.366;2023-08-21T12:42:41;5.40;;;2.55;;
59312;SDS011;45084;51.486;7.366;2023-08-21T12:45:07;4.47;;;2.30;;
59312;SDS011;45084;51.486;7.366;2023-08-21T12:47:33;6.43;;;3.00;;
59312;SDS011;45084;51.486;7.366;2023-08-21T12:49:58;3.60;;;2.53;;
59312;SDS011;45084;51.486;7.366;2023-08-21T12:52:24;7.80;;;3.17;;
59312;SDS011;45084;51.486;7.366;2023-08-21T12:54:49;6.78;;;2.78;;
59312;SDS011;45084;51.486;7.366;2023-08-21T12:57:15;5.32;;;2.45;;
59312;SDS011;45084;51.486;7.366;2023-08-21T12:59:42;8.77;;;3.10;;
59312;SDS011;45084;51.486;7.366;2023-08-21T13:02:08;6.05;;;2.53;;
59312;SDS011;45084;51.486;7.366;2023-08-21T13:04:33;4.80;;;2.33;;
59312;SDS011;45084;51.486;7.366;2023-08-21T13:06:59;6.53;;;2.78;;
59312;SDS011;45084;51.486;7.366;2023-08-21T13:09:25;5.63;;;2.45;;
59312;SDS011;45084;51.486;7.366;2023-08-21T13:11:52;5.68;;;2.05;;
59312;SDS011;45084;51.486;7.366;2023-08-21T13:14:18;4.78;;;2.25;;
59312;SDS011;45084;51.486;7.366;2023-08-21T13:16:44;8.20;;;2.20;;
59312;SDS011;45084;51.486;7.366;2023-08-21T13:19:10;6.05;;;3.03;;
59312;SDS011;45084;51.486;7.366;2023-08-21T13:21:36;6.07;;;2.30;;
59312;SDS011;45084;51.486;7.366;2023-08-21T13:24:02;6.20;;;2.40;;
59312;SDS011;45084;51.486;7.366;2023-08-21T13:26:28;6.65;;;2.50;;
59312;SDS011;45084;51.486;7.366;2023-08-21T13:28:54;6.47;;;2.97;;
59312;SDS011;45084;51.486;7.366;2023-08-21T13:31:20;7.43;;;2.72;;
59312;SDS011;45084;51.486;7.366;2023-08-21T13:33:49;6.40;;;2.95;;
59312;SDS011;45084;51.486;7.366;2023-08-21T13:36:15;6.97;;;2.78;;
59312;SDS011;45084;51.486;7.366;2023-08-21T13:38:42;7.25;;;2.97;;
59312;SDS011;45084;51.486;7.366;2023-08-21T13:41:08;4.95;;;2.72;;
59312;SDS011;45084;51.486;7.366;2023-08-21T13:43:34;5.68;;;2.80;;
59312;SDS011;45084;51.486;7.366;2023-08-21T13:46:00;7.82;;;3.15;;
59312;SDS011;45084;51.486;7.366;2023-08-21T13:48:28;7.68;;;2.97;;
59312;SDS011;45084;51.486;7.366;2023-08-21T13:50:55;6.78;;;2.90;;
59312;SDS011;45084;51.486;7.366;2023-08-21T13:53:21;6.47;;;3.80;;
59312;SDS011;45084;51.486;7.366;2023-08-21T13:55:46;5.93;;;3.22;;
59312;SDS011;45084;51.486;7.366;2023-08-21T13:58:12;8.00;;;3.50;;
59312;SDS011;45084;51.486;7.366;2023-08-21T14:00:37;4.07;;;2.90;;
59312;SDS011;45084;51.486;7.366;2023-08-21T14:03:03;8.02;;;3.60;;
59312;SDS011;45084;51.486;7.366;2023-08-21T14:05:29;7.28;;;3.53;;
59312;SDS011;45084;51.486;7.366;2023-08-21T14:07:56;6.00;;;3.40;;
59312;SDS011;45084;51.486;7.366;2023-08-21T14:10:22;5.20;;;3.20;;
59312;SDS011;45084;51.486;7.366;2023-08-21T14:12:48;6.15;;;2.97;;
59312;SDS011;45084;51.486;7.366;2023-08-21T14:15:14;6.13;;;3.20;;
59312;SDS011;45084;51.486;7.366;2023-08-21T14:17:39;5.63;;;3.00;;
59312;SDS011;45084;51.486;7.366;2023-08-21T14:20:06;4.85;;;2.92;;
59312;SDS011;45084;51.486;7.366;2023-08-21T14:22:32;4.07;;;2.53;;
59312;SDS011;45084;51.486;7.366;2023-08-21T14:24:58;5.05;;;2.83;;
59312;SDS011;45084;51.486;7.366;2023-08-21T14:27:23;4.68;;;2.50;;
59312;SDS011;45084;51.486;7.366;2023-08-21T14:29:49;5.40;;;2.70;;
59312;SDS011;45084;51.486;7.366;2023-08-21T14:32:15;6.05;;;2.70;;
59312;SDS011;45084;51.486;7.366;2023-08-21T14:34:40;4.47;;;2.38;;
59312;SDS011;45084;51.486;7.366;2023-08-21T14:37:06;3.65;;;2.20;;
59312;SDS011;45084;51.486;7.366;2023-08-21T14:39:41;6.68;;;3.05;;
59312;SDS011;45084;51.486;7.366;2023-08-21T14:42:08;4.90;;;2.13;;
59312;SDS011;45084;51.486;7.366;2023-08-21T14:44:33;6.20;;;2.30;;
59312;SDS011;45084;51.486;7.366;2023-08-21T14:46:59;6.05;;;2.25;;
59312;SDS011;45084;51.486;7.366;2023-08-21T14:49:25;4.00;;;2.28;;
59312;SDS011;45084;51.486;7.366;2023-08-21T14:51:50;7.32;;;2.20;;